Time;durP1;ratioP1;P1;durP2;ratioP2;P2;SDS_P1;SDS_P2;PMS_P1;PMS_P2;Temp;Humidity;BMP_temperature;BMP_pressure;BME280_temperature;BME280_humidity;BME280_pressure;Samples;Min_cycle;Max_cycle;Signal;HPM_P1;HPM_P2
2021/10/23 00:02:10;;;;;;;10.30;1.97;;;;;;;5.43;96.92;101247.06;5109061;28;20043;-78
2021/10/23 00:04:35;;;;;;;9.73;2.10;;;;;;;5.36;96.90;101237.88;5109081;28;20285;-79
2021/10/23 00:07:01;;;;;;;15.00;2.67;;;;;;;5.38;96.94;101238.59;5110240;28;20028;-78
2021/10/23 00:09:26;;;;;;;11.77;2.20;;;;;;;5.32;97.64;101241.72;5110172;28;20034;-78
2021/10/23 00:11:52;;;;;;;17.83;3.13;;;;;;;5.39;97.34;101236.81;5108921;28;20024;-78
2021/10/23 00:14:17;;;;;;;18.27;2.27;;;;;;;5.37;97.55;101247.50;5108911;28;20066;-77
2021/10/23 00:16:43;;;;;;;14.77;3.08;;;;;;;5.28;97.91;101241.09;5111407;28;20070;-77
2021/10/23 00:19:08;;;;;;;15.43;2.17;;;;;;;5.28;97.94;101245.56;5110800;27;20460;-77
2021/10/23 00:21:34;;;;;;;18.20;2.27;;;;;;;5.33;97.27;101239.91;5127466;27;20054;-78
2021/10/23 00:23:59;;;;;;;22.10;4.57;;;;;;;5.32;97.00;101236.44;5110464;28;20167;-78
2021/10/23 00:26:24;;;;;;;19.57;3.40;;;;;;;5.20;97.22;101219.66;5111528;28;20035;-78
2021/10/23 00:28:50;;;;;;;10.13;2.50;;;;;;;5.28;97.54;101237.63;5110210;28;20024;-78
2021/10/23 00:31:15;;;;;;;14.30;3.13;;;;;;;5.29;97.44;101249.88;5109594;28;20139;-78
2021/10/23 00:33:40;;;;;;;23.33;2.90;;;;;;;5.35;97.64;101270.59;5108289;28;20180;-78
2021/10/23 00:36:06;;;;;;;15.60;2.13;;;;;;;5.29;97.04;101255.16;5109920;28;20289;-79
2021/10/23 00:38:32;;;;;;;19.80;3.65;;;;;;;5.26;97.16;101266.84;5109720;28;20126;-78
2021/10/23 00:40:58;;;;;;;26.48;3.17;;;;;;;5.33;97.15;101282.28;5108391;28;20035;-79
2021/10/23 00:43:23;;;;;;;19.10;2.20;;;;;;;5.27;96.86;101270.34;5108570;28;20208;-79
2021/10/23 00:45:48;;;;;;;13.30;2.60;;;;;;;5.20;96.60;101256.72;5108445;28;20047;-79
2021/10/23 00:48:14;;;;;;;16.37;2.33;;;;;;;5.19;96.63;101270.06;5109567;28;20444;-79
2021/10/23 00:50:40;;;;;;;16.77;2.30;;;;;;;5.05;96.75;101266.63;5125486;27;20054;-79
2021/10/23 00:53:07;;;;;;;;;;;;;;;4.97;97.21;101284.06;5108576;28;20036;-79
2021/10/23 00:55:32;;;;;;;11.07;1.92;;;;;;;4.91;97.72;101289.78;5090823;28;20343;-78
2021/10/23 00:57:58;;;;;;;11.60;2.22;;;;;;;4.98;97.89;101309.56;5109175;28;20028;-79
2021/10/23 01:00:23;;;;;;;11.93;2.20;;;;;;;5.10;97.68;101313.09;5108013;28;20039;-78
2021/10/23 01:02:49;;;;;;;15.13;2.17;;;;;;;4.96;97.30;101301.72;5109131;28;20440;-78
2021/10/23 01:05:14;;;;;;;15.43;3.37;;;;;;;5.01;97.37;101312.84;5108846;28;20040;-79
2021/10/23 01:07:40;;;;;;;16.35;2.17;;;;;;;4.86;97.74;101298.91;5108913;28;20032;-78
2021/10/23 01:10:09;;;;;;;22.00;4.37;;;;;;;5.00;97.95;101324.38;5125084;27;20027;-79
2021/10/23 01:12:38;;;;;;;16.35;2.78;;;;;;;4.86;98.12;101316.59;5107548;28;20123;-78
2021/10/23 01:15:21;;;;;;;16.65;2.38;;;;;;;4.82;98.42;101331.00;5124615;27;20040;-78
2021/10/23 01:17:46;;;;;;;21.20;3.83;;;;;;;4.89;98.92;101345.47;5107776;28;20372;-78
2021/10/23 01:20:12;;;;;;;13.38;2.22;;;;;;;4.88;98.92;101351.72;5090758;28;20103;-79
2021/10/23 01:22:37;;;;;;;24.85;2.20;;;;;;;4.79;99.09;101360.31;5107725;28;20031;-79
2021/10/23 01:25:03;;;;;;;30.83;4.07;;;;;;;4.69;99.15;101362.78;5107454;28;20501;-78
2021/10/23 01:27:29;;;;;;;24.15;3.28;;;;;;;4.72;99.58;101369.66;5124789;27;20036;-78
2021/10/23 01:29:54;;;;;;;16.37;2.70;;;;;;;4.74;99.65;101371.22;5107682;28;20027;-79
2021/10/23 01:32:20;;;;;;;23.23;2.45;;;;;;;4.70;99.49;101360.97;5108493;28;20035;-79
2021/10/23 01:34:45;;;;;;;18.97;2.00;;;;;;;4.78;99.56;101366.56;5124601;27;20105;-78
2021/10/23 01:37:39;;;;;;;9.20;1.90;;;;;;;4.86;99.48;101374.81;5108829;28;20433;-79
2021/10/23 01:40:08;;;;;;;11.10;3.17;;;;;;;4.85;99.16;101378.41;5107534;28;20031;-78
2021/10/23 01:42:34;;;;;;;14.93;3.55;;;;;;;4.91;98.75;101356.78;5110285;28;20043;-78
2021/10/23 01:44:59;;;;;;;13.07;2.08;;;;;;;4.92;98.30;101358.50;5108919;28;20072;-77
2021/10/23 01:47:24;;;;;;;11.90;2.57;;;;;;;4.85;98.24;101344.03;5092016;28;20054;-78
2021/10/23 01:49:50;;;;;;;19.03;2.83;;;;;;;4.79;98.24;101344.44;5109075;28;20284;-78
2021/10/23 01:52:16;;;;;;;10.45;2.38;;;;;;;4.81;98.46;101364.53;5108957;28;20024;-78
2021/10/23 01:54:42;;;;;;;9.88;2.90;;;;;;;4.89;98.21;101379.84;5125212;27;20138;-78
2021/10/23 01:57:08;;;;;;;19.38;3.17;;;;;;;4.86;97.90;101380.94;5108709;28;20024;-78
2021/10/23 01:59:34;;;;;;;;;;;;;;;4.93;97.81;101383.97;5108896;28;20396;-78
2021/10/23 02:02:01;;;;;;;20.42;3.75;;;;;;;5.11;97.44;101383.63;5125795;27;19911;-79
2021/10/23 02:04:26;;;;;;;28.20;3.70;;;;;;;5.22;96.54;101381.00;5091576;28;20504;-78
2021/10/23 02:06:52;;;;;;;10.77;2.05;;;;;;;5.30;96.21;101389.25;5125935;27;20129;-77
2021/10/23 02:09:18;;;;;;;14.65;2.72;;;;;;;5.42;95.58;101395.47;5125662;27;20034;-78
2021/10/23 02:11:43;;;;;;;23.00;2.70;;;;;;;5.38;95.14;101388.69;5108634;28;20042;-78
2021/10/23 02:14:09;;;;;;;9.15;2.03;;;;;;;5.41;94.92;101394.63;5108480;28;20051;-78
2021/10/23 02:16:34;;;;;;;15.63;3.10;;;;;;;5.40;94.83;101400.84;5108538;28;20035;-78
2021/10/23 02:19:00;;;;;;;13.38;1.73;;;;;;;5.43;94.71;101405.94;5108276;28;20734;-78
2021/10/23 02:21:25;;;;;;;16.77;1.93;;;;;;;5.40;94.62;101392.06;5108388;28;20027;-77
2021/10/23 02:23:51;;;;;;;13.80;1.75;;;;;;;5.34;95.21;101395.16;5091159;28;20036;-77
2021/10/23 02:26:16;;;;;;;20.50;2.40;;;;;;;5.38;94.98;101397.47;5108380;28;20028;-78
2021/10/23 02:28:42;;;;;;;11.43;1.67;;;;;;;5.38;95.32;101397.47;5125672;27;20028;-78
2021/10/23 02:31:07;;;;;;;22.33;4.47;;;;;;;5.25;95.40;101394.06;5109322;28;20944;-77
2021/10/23 02:33:33;;;;;;;13.87;2.23;;;;;;;5.19;95.62;101399.78;5107949;28;20091;-78
2021/10/23 02:35:59;;;;;;;17.33;3.28;;;;;;;5.11;95.94;101404.81;5108145;28;20153;-79
2021/10/23 02:38:24;;;;;;;15.23;3.77;;;;;;;5.06;95.96;101411.25;5108922;28;20023;-77
2021/10/23 02:40:50;;;;;;;26.42;4.20;;;;;;;5.00;96.50;101402.91;5108956;28;20042;-78
2021/10/23 02:43:15;;;;;;;15.43;2.00;;;;;;;4.99;96.82;101417.97;5107922;28;20046;-78
2021/10/23 02:45:44;;;;;;;28.42;3.70;;;;;;;4.98;97.46;101426.84;5108067;28;20478;-78
2021/10/23 02:48:10;;;;;;;15.52;2.22;;;;;;;5.02;97.89;101433.59;5125029;27;20122;-76
2021/10/23 02:50:35;;;;;;;14.18;3.40;;;;;;;5.07;97.70;101435.94;5108028;28;20065;-77
2021/10/23 02:53:01;;;;;;;16.60;2.30;;;;;;;5.01;97.65;101442.50;5108072;28;20019;-78
2021/10/23 02:55:27;;;;;;;27.08;3.15;;;;;;;5.06;97.54;101442.19;5107595;28;20452;-78
2021/10/23 02:57:52;;;;;;;16.90;2.35;;;;;;;4.99;97.98;101436.47;5108992;28;20491;-78
2021/10/23 03:00:18;;;;;;;18.80;2.50;;;;;;;4.98;97.95;101434.78;5107987;28;20039;-78
2021/10/23 03:02:45;;;;;;;15.45;2.35;;;;;;;4.94;98.43;101435.97;5107821;28;20039;-77
2021/10/23 03:05:11;;;;;;;14.40;2.80;;;;;;;4.91;98.51;101436.16;5109820;28;20160;-78
2021/10/23 03:07:36;;;;;;;18.63;3.17;;;;;;;4.82;98.72;101447.41;5113006;28;20039;-78
2021/10/23 03:10:06;;;;;;;12.20;2.97;;;;;;;4.68;99.38;101439.59;5113046;28;20330;-78
2021/10/23 03:12:31;;;;;;;18.75;2.95;;;;;;;4.67;99.88;101453.78;5111810;28;20035;-78
2021/10/23 03:14:58;;;;;;;17.60;2.67;;;;;;;4.76;100.00;101472.50;5111577;28;20093;-78
2021/10/23 03:17:24;;;;;;;20.48;2.45;;;;;;;4.90;100.00;101476.81;5112853;28;20039;-77
2021/10/23 03:19:49;;;;;;;21.87;3.07;;;;;;;4.98;99.86;101479.75;5112810;28;20033;-78
2021/10/23 03:22:15;;;;;;;11.87;2.50;;;;;;;5.00;99.68;101469.09;5111768;28;20373;-78
2021/10/23 03:24:40;;;;;;;13.65;1.95;;;;;;;4.94;100.00;101478.31;5128447;27;20289;-77
2021/10/23 03:27:06;;;;;;;19.87;2.90;;;;;;;4.92;99.81;101485.50;5111661;28;20027;-78
2021/10/23 03:29:31;;;;;;;15.10;2.33;;;;;;;4.93;100.00;101481.91;5112549;28;20084;-78
2021/10/23 03:31:57;;;;;;;16.03;2.83;;;;;;;4.98;100.00;101490.34;5111414;28;20122;-77
2021/10/23 03:34:22;;;;;;;14.13;3.50;;;;;;;4.94;100.00;101491.53;5112271;28;20012;-78
2021/10/23 03:36:48;;;;;;;16.90;2.70;;;;;;;5.02;100.00;101491.84;5111318;28;20059;-77
2021/10/23 03:39:14;;;;;;;27.90;5.55;;;;;;;5.15;100.00;101494.47;5111250;28;20081;-77
2021/10/23 03:41:40;;;;;;;17.52;2.53;;;;;;;5.27;99.73;101496.25;5112252;28;20032;-78
2021/10/23 03:44:06;;;;;;;11.20;2.30;;;;;;;5.29;98.78;101490.81;5110862;28;20042;-78
2021/10/23 03:46:32;;;;;;;20.95;4.03;;;;;;;5.34;97.82;101478.13;5110771;28;20045;-78
2021/10/23 03:48:58;;;;;;;16.33;2.50;;;;;;;5.36;96.76;101481.50;5126968;27;20027;-77
2021/10/23 03:51:23;;;;;;;14.50;2.30;;;;;;;5.28;96.49;101468.78;5109999;28;20063;-77
2021/10/23 03:53:48;;;;;;;25.37;2.83;;;;;;;5.27;96.13;101484.81;5126442;27;20044;-78
2021/10/23 03:56:14;;;;;;;18.73;2.97;;;;;;;5.27;95.91;101479.50;5110952;28;20054;-77
2021/10/23 03:58:40;;;;;;;18.58;3.13;;;;;;;5.23;96.00;101484.16;5126775;27;20059;-78
2021/10/23 04:01:06;;;;;;;22.25;3.35;;;;;;;5.06;96.16;101458.91;5112059;28;20471;-78
2021/10/23 04:03:31;;;;;;;16.33;2.93;;;;;;;5.14;96.43;101483.97;5110585;28;20451;-77
2021/10/23 04:05:57;;;;;;;20.35;2.58;;;;;;;5.02;96.80;101483.88;5111984;28;20161;-78
2021/10/23 04:08:22;;;;;;;16.70;2.30;;;;;;;5.04;97.34;101495.22;5110751;28;20610;-78
2021/10/23 04:10:48;;;;;;;24.70;2.90;;;;;;;4.93;97.85;101491.63;5093767;28;20211;-77
2021/10/23 04:13:14;;;;;;;17.58;2.75;;;;;;;4.95;98.04;101511.75;5111334;28;20296;-78
2021/10/23 04:15:39;;;;;;;17.67;2.53;;;;;;;5.00;97.99;101511.41;5127506;27;20038;-78
2021/10/23 04:18:05;;;;;;;16.83;2.80;;;;;;;5.12;97.57;101518.50;5126405;27;20019;-79
2021/10/23 04:20:30;;;;;;;15.85;2.13;;;;;;;5.13;96.77;101516.69;5127511;27;20118;-78
2021/10/23 04:22:56;;;;;;;17.20;2.33;;;;;;;5.17;96.51;101515.53;5111438;28;20040;-78
2021/10/23 04:25:22;;;;;;;22.55;3.67;;;;;;;5.19;96.42;101524.22;5111361;28;20031;-79
2021/10/23 04:27:48;;;;;;;11.33;2.03;;;;;;;5.22;96.63;101531.91;5110498;28;20122;-79
2021/10/23 04:30:13;;;;;;;9.70;1.83;;;;;;;5.12;96.54;101541.47;5111259;28;20040;-78
2021/10/23 04:32:39;;;;;;;17.48;2.90;;;;;;;5.11;96.70;101543.28;5111328;28;20042;-79
2021/10/23 04:35:06;;;;;;;11.40;1.70;;;;;;;5.02;97.14;101534.19;5110997;28;20103;-78
2021/10/23 04:37:31;;;;;;;14.93;3.58;;;;;;;5.12;97.03;101544.13;5108825;28;20031;-78
2021/10/23 04:39:57;;;;;;;9.50;2.95;;;;;;;5.14;97.02;101551.00;5109401;28;20039;-78
2021/10/23 04:42:23;;;;;;;11.32;1.63;;;;;;;5.31;96.66;101559.56;5108387;28;20023;-78
2021/10/23 04:44:48;;;;;;;12.40;2.22;;;;;;;5.23;96.41;101541.56;5108257;28;20031;-78
2021/10/23 04:47:14;;;;;;;13.53;3.63;;;;;;;5.35;96.11;101561.88;5108526;28;20069;-78
2021/10/23 04:49:39;;;;;;;12.97;2.33;;;;;;;5.36;96.49;101563.59;5108391;28;20070;-78
2021/10/23 04:52:04;;;;;;;15.43;2.53;;;;;;;5.40;96.52;101569.50;5107864;28;20440;-78
2021/10/23 04:54:30;;;;;;;16.87;2.30;;;;;;;5.42;95.72;101559.66;5107108;28;20036;-78
2021/10/23 04:56:55;;;;;;;15.20;2.10;;;;;;;5.41;95.81;101571.22;5107642;28;20035;-79
2021/10/23 04:59:21;;;;;;;15.87;2.57;;;;;;;5.38;95.88;101563.47;5089407;28;20039;-78
2021/10/23 05:01:46;;;;;;;15.07;1.93;;;;;;;5.37;95.83;101565.28;5106585;28;20296;-79
2021/10/23 05:04:12;;;;;;;15.57;2.03;;;;;;;5.49;95.86;101580.28;5089124;28;20410;-78
2021/10/23 05:06:37;;;;;;;12.03;2.07;;;;;;;5.44;96.11;101577.13;5109495;28;20031;-78
2021/10/23 05:09:03;;;;;;;9.43;2.10;;;;;;;5.53;96.04;101585.38;5109498;28;20015;-77
2021/10/23 05:11:28;;;;;;;18.52;2.88;;;;;;;5.48;96.26;101573.31;5110647;28;20062;-78
2021/10/23 05:13:54;;;;;;;10.27;1.98;;;;;;;5.42;96.23;101565.78;5109374;28;20476;-78
2021/10/23 05:16:19;;;;;;;12.77;2.10;;;;;;;5.41;96.32;101568.56;5125397;27;20595;-78
2021/10/23 05:18:48;;;;;;;12.87;3.20;;;;;;;5.46;96.47;101577.03;5107654;28;20035;-79
2021/10/23 05:21:17;;;;;;;13.43;1.88;;;;;;;5.49;96.68;101590.03;5124904;27;20027;-78
2021/10/23 05:23:42;;;;;;;16.90;2.97;;;;;;;5.46;97.09;101601.69;5108579;28;20028;-79
2021/10/23 05:26:08;;;;;;;17.13;2.40;;;;;;;5.43;97.12;101601.94;5107664;28;20038;-79
2021/10/23 05:28:33;;;;;;;14.85;2.05;;;;;;;5.58;97.54;101629.13;5108704;28;20044;-79
2021/10/23 05:30:59;;;;;;;13.83;2.17;;;;;;;5.55;97.18;101615.22;5107674;28;20031;-78
2021/10/23 05:33:25;;;;;;;17.15;3.03;;;;;;;5.54;96.93;101618.84;5124250;27;20779;-78
2021/10/23 05:35:50;;;;;;;11.63;2.10;;;;;;;5.39;97.66;101605.75;5107780;28;20092;-78
2021/10/23 05:38:16;;;;;;;23.13;3.22;;;;;;;5.48;97.70;101623.63;5090446;28;20569;-78
2021/10/23 05:40:41;;;;;;;10.50;2.35;;;;;;;5.46;97.82;101630.00;5124108;27;20040;-79
2021/10/23 05:43:07;;;;;;;13.27;1.90;;;;;;;5.46;97.78;101628.19;5090346;28;20467;-78
2021/10/23 05:45:32;;;;;;;20.95;2.70;;;;;;;5.37;98.37;101634.13;5107125;28;20479;-78
2021/10/23 05:47:57;;;;;;;13.90;2.47;;;;;;;5.34;98.52;101623.75;5107114;28;20063;-78
2021/10/23 05:50:23;;;;;;;16.97;2.93;;;;;;;5.30;99.08;101632.84;5107996;28;20051;-78
2021/10/23 05:52:48;;;;;;;16.13;2.53;;;;;;;5.20;99.54;101629.16;5107029;28;20035;-77
2021/10/23 05:55:14;;;;;;;10.10;2.03;;;;;;;5.29;99.96;101639.09;5123756;27;20461;-78
2021/10/23 05:57:39;;;;;;;18.83;2.78;;;;;;;5.31;100.00;101652.22;5107121;28;20431;-78
2021/10/23 06:00:07;;;;;;;16.20;3.40;;;;;;;5.27;100.00;101648.97;5124004;27;20118;-77
2021/10/23 06:02:41;;;;;;;18.70;2.72;;;;;;;5.29;100.00;101662.91;5108082;28;20364;-78
2021/10/23 06:05:07;;;;;;;21.40;3.65;;;;;;;5.27;100.00;101649.81;5123664;27;20368;-78
2021/10/23 06:07:42;;;;;;;13.43;2.53;;;;;;;5.38;100.00;101661.44;5106883;28;20031;-77
2021/10/23 06:10:10;;;;;;;18.90;3.92;;;;;;;5.43;100.00;101665.50;5108245;28;20061;-77
2021/10/23 06:12:36;;;;;;;9.45;2.03;;;;;;;5.36;100.00;101674.81;5089664;28;20107;-77
2021/10/23 06:15:03;;;;;;;15.20;3.35;;;;;;;5.41;100.00;101677.97;5123735;27;20088;-77
2021/10/23 06:17:28;;;;;;;13.43;2.10;;;;;;;5.50;99.81;101687.06;5106747;28;20130;-77
2021/10/23 06:19:54;;;;;;;9.40;1.83;;;;;;;5.58;99.33;101692.69;5106624;28;20035;-78
2021/10/23 06:22:20;;;;;;;12.95;1.70;;;;;;;5.64;98.69;101694.94;5107821;28;20046;-78
2021/10/23 06:24:45;;;;;;;11.38;2.80;;;;;;;5.71;97.96;101690.03;5106543;28;20039;-77
2021/10/23 06:27:11;;;;;;;21.08;2.42;;;;;;;5.80;97.59;101691.19;5106438;28;20069;-76
2021/10/23 06:29:37;;;;;;;19.30;2.97;;;;;;;5.76;97.48;101685.28;5107714;28;20031;-76
2021/10/23 06:32:03;;;;;;;16.30;3.00;;;;;;;5.68;97.29;101679.66;5106614;28;20106;-77
2021/10/23 06:34:28;;;;;;;;;;;;;;;5.74;97.29;101692.47;5108047;28;20566;-76
2021/10/23 06:36:54;;;;;;;16.55;4.00;;;;;;;5.76;96.97;101682.63;5107597;28;19998;-77
2021/10/23 06:39:20;;;;;;;19.10;2.97;;;;;;;5.89;96.20;101701.97;5107619;28;20432;-77
2021/10/23 06:41:45;;;;;;;8.80;2.00;;;;;;;6.03;95.66;101705.50;5110354;28;20044;-78
2021/10/23 06:44:11;;;;;;;11.13;2.15;;;;;;;6.11;95.02;101713.72;5111468;28;20463;-78
2021/10/23 06:46:38;;;;;;;18.23;2.30;;;;;;;6.08;94.48;101714.81;5093696;28;20084;-78
2021/10/23 06:49:05;;;;;;;11.23;2.08;;;;;;;6.25;93.78;101729.53;5111601;28;20038;-78
2021/10/23 06:51:31;;;;;;;8.85;2.17;;;;;;;6.29;93.89;101733.63;5127537;27;20043;-78
2021/10/23 06:53:58;;;;;;;14.73;2.42;;;;;;;6.25;93.46;101732.19;5111013;28;20067;-78
2021/10/23 06:56:24;;;;;;;18.65;2.42;;;;;;;6.55;93.14;101766.25;5127672;27;20049;-79
2021/10/23 06:58:50;;;;;;;8.68;1.42;;;;;;;6.63;92.47;101760.38;5127736;27;20408;-78
2021/10/23 07:01:16;;;;;;;11.23;3.42;;;;;;;6.90;91.05;101772.56;5093432;28;20043;-78
2021/10/23 07:03:42;;;;;;;21.10;2.83;;;;;;;7.06;90.26;101761.66;5110167;28;20039;-78
2021/10/23 07:06:08;;;;;;;11.70;3.40;;;;;;;7.12;88.72;101756.75;5093340;28;20050;-78
2021/10/23 07:08:34;;;;;;;17.17;2.40;;;;;;;7.35;88.09;101770.06;5110334;28;20099;-78
2021/10/23 07:10:59;;;;;;;12.30;2.13;;;;;;;7.61;86.87;101782.25;5111414;28;20050;-78
2021/10/23 07:13:24;;;;;;;16.67;2.40;;;;;;;7.75;86.12;101762.56;5109984;28;20044;-78
2021/10/23 07:15:50;;;;;;;15.90;3.57;;;;;;;7.81;85.27;101771.88;5093592;28;20138;-79
2021/10/23 07:18:15;;;;;;;11.87;3.37;;;;;;;8.17;84.63;101784.09;5110075;28;20032;-78
2021/10/23 07:20:41;;;;;;;14.20;3.28;;;;;;;8.30;83.06;101768.00;5127382;27;20445;-78
2021/10/23 07:23:06;;;;;;;12.30;2.43;;;;;;;8.66;81.66;101763.34;5093035;28;20093;-78
2021/10/23 07:25:32;;;;;;;10.43;2.20;;;;;;;8.66;80.50;101742.06;5093046;28;20273;-78
2021/10/23 07:27:58;;;;;;;13.13;2.38;;;;;;;9.01;79.73;101776.47;5109940;28;20032;-78
2021/10/23 07:30:23;;;;;;;15.02;1.77;;;;;;;9.28;78.60;101775.13;5110893;28;20481;-78
2021/10/23 07:32:49;;;;;;;11.13;1.50;;;;;;;9.52;78.28;101798.84;5110720;28;20469;-78
2021/10/23 07:35:15;;;;;;;13.25;2.40;;;;;;;9.69;76.77;101782.28;5109661;28;20042;-78
2021/10/23 07:37:42;;;;;;;15.45;2.05;;;;;;;10.05;76.16;101784.56;5110697;28;20031;-78
2021/10/23 07:40:10;;;;;;;15.75;2.70;;;;;;;10.04;74.97;101777.50;5126775;27;20036;-77
2021/10/23 07:42:37;;;;;;;21.17;3.05;;;;;;;9.98;74.54;101784.25;5110510;28;20061;-78
2021/10/23 07:45:05;;;;;;;10.52;2.05;;;;;;;10.52;73.94;101796.41;5109355;28;20061;-78
2021/10/23 07:47:30;;;;;;;18.63;2.42;;;;;;;10.77;72.91;101791.56;5126850;27;20448;-77
2021/10/23 07:49:57;;;;;;;11.53;2.43;;;;;;;10.86;72.37;101790.69;5108156;28;20039;-78
2021/10/23 07:52:22;;;;;;;13.88;2.45;;;;;;;10.87;71.81;101784.38;5124699;27;20371;-77
2021/10/23 07:54:48;;;;;;;12.03;3.43;;;;;;;10.98;71.04;101789.59;5107333;28;20281;-78
2021/10/23 07:57:14;;;;;;;11.60;2.37;;;;;;;10.99;69.74;101766.41;5109053;28;20783;-78
2021/10/23 07:59:40;;;;;;;;;;;;;;;11.78;68.13;101797.41;5108608;28;20146;-77
2021/10/23 08:02:06;;;;;;;;;;;;;;;11.99;67.68;101799.91;5108319;28;20061;-77
2021/10/23 08:04:32;;;;;;;15.95;2.47;;;;;;;11.99;67.19;101797.25;5108114;28;19907;-77
2021/10/23 08:07:02;;;;;;;13.52;1.95;;;;;;;12.30;66.04;101802.34;5109273;28;20440;-78
2021/10/23 08:09:32;;;;;;;18.63;3.55;;;;;;;12.71;66.26;101821.56;5109135;28;20027;-78
2021/10/23 08:11:58;;;;;;;8.80;1.90;;;;;;;12.94;65.57;101824.66;5110542;28;20034;-77
2021/10/23 08:14:24;;;;;;;10.45;2.28;;;;;;;13.15;64.25;101802.91;5108925;28;20490;-77
2021/10/23 08:16:49;;;;;;;10.25;2.47;;;;;;;13.29;63.18;101787.13;5108880;28;20067;-78
2021/10/23 08:19:15;;;;;;;9.60;2.08;;;;;;;13.59;63.22;101802.97;5110331;28;20031;-77
2021/10/23 08:21:41;;;;;;;15.10;2.17;;;;;;;14.03;61.07;101792.19;5126094;27;20028;-77
2021/10/23 08:24:08;;;;;;;9.68;1.75;;;;;;;14.28;60.58;101787.75;5108599;28;20031;-78
2021/10/23 08:26:33;;;;;;;14.38;2.45;;;;;;;13.82;62.39;101790.72;5108882;28;20040;-78
2021/10/23 08:28:59;;;;;;;8.33;2.10;;;;;;;14.51;60.74;101807.66;5126020;27;20392;-77
2021/10/23 08:31:24;;;;;;;10.13;2.20;;;;;;;14.48;60.20;101796.41;5108601;28;20034;-77
2021/10/23 08:33:52;;;;;;;10.88;2.13;;;;;;;14.06;60.55;101775.75;5109751;28;20035;-77
2021/10/23 08:36:18;;;;;;;10.23;2.72;;;;;;;13.99;61.32;101796.19;5125880;27;20027;-77
2021/10/23 08:38:43;;;;;;;13.90;2.17;;;;;;;12.67;62.64;101749.53;5109688;28;20476;-77
2021/10/23 08:41:12;;;;;;;16.23;3.38;;;;;;;12.12;64.75;101756.75;5109589;28;20110;-77
2021/10/23 08:43:40;;;;;;;7.25;3.30;;;;;;;12.34;65.02;101793.00;5108148;28;20028;-77
2021/10/23 08:46:18;;;;;;;12.55;2.67;;;;;;;12.00;65.63;101790.88;5108340;28;20063;-77
2021/10/23 08:48:49;;;;;;;9.30;1.77;;;;;;;12.11;66.21;101814.81;5109770;28;20104;-77
2021/10/23 08:51:16;;;;;;;11.07;1.92;;;;;;;11.59;67.47;101795.63;5109375;28;20028;-76
2021/10/23 08:53:41;;;;;;;;;;;;;;;11.59;67.79;101822.38;5109476;28;20024;-77
2021/10/23 08:56:07;;;;;;;;;;;;;;;12.53;66.96;101870.59;5108479;28;19926;-76
2021/10/23 08:58:33;;;;;;;11.30;2.05;;;;;;;13.50;63.28;101851.19;5091072;28;19919;-77
2021/10/23 09:00:59;;;;;;;10.70;1.90;;;;;;;13.37;63.83;101850.75;5108257;28;20039;-77
2021/10/23 09:03:25;;;;;;;8.93;1.80;;;;;;;14.35;61.69;101864.00;5124362;27;20048;-77
2021/10/23 09:05:51;;;;;;;12.82;2.30;;;;;;;14.40;61.76;101845.59;5109147;28;20031;-77
2021/10/23 09:08:17;;;;;;;8.07;3.00;;;;;;;13.49;63.13;101822.69;5125010;27;20372;-76
2021/10/23 09:10:48;;;;;;;10.13;1.90;;;;;;;13.84;62.59;101847.78;5107807;28;20039;-76
2021/10/23 09:13:27;;;;;;;9.75;2.83;;;;;;;15.13;59.37;101855.75;5107567;28;20027;-77
2021/10/23 09:15:53;;;;;;;14.77;3.20;;;;;;;13.87;60.35;101792.94;5124918;27;20062;-76
2021/10/23 09:18:19;;;;;;;13.70;2.40;;;;;;;13.44;62.39;101798.19;5107801;28;20472;-76
2021/10/23 09:20:45;;;;;;;;;;;;;;;13.15;63.30;101813.63;5108119;28;20050;-76
2021/10/23 09:23:17;;;;;;;;;;;;;;;13.47;64.03;101840.78;5108961;28;19915;-76
2021/10/23 09:25:44;;;;;;;15.40;2.80;;;;;;;13.22;63.32;101809.34;5124691;27;19970;-76
2021/10/23 09:28:13;;;;;;;;;;;;;;;14.06;62.47;101872.41;5108192;28;20028;-76
2021/10/23 09:30:48;;;;;;;7.75;1.70;;;;;;;14.70;60.42;101870.25;5107461;28;20344;-76
2021/10/23 09:33:19;;;;;;;11.37;2.90;;;;;;;14.38;60.57;101844.91;5107335;28;20460;-76
2021/10/23 09:36:00;;;;;;;13.95;2.60;;;;;;;14.27;59.09;101805.72;5124954;27;20320;-76
2021/10/23 09:38:32;;;;;;;11.40;3.28;;;;;;;14.23;60.38;101817.78;5108851;28;20097;-76
2021/10/23 09:41:13;;;;;;;10.45;2.72;;;;;;;13.48;60.81;101794.16;5107363;28;20036;-76
2021/10/23 09:43:38;;;;;;;7.97;2.20;;;;;;;13.39;60.56;101800.50;5108454;28;20031;-76
2021/10/23 09:46:11;;;;;;;14.17;2.17;;;;;;;13.56;61.35;101833.66;5124217;27;20027;-76
2021/10/23 09:48:45;;;;;;;9.60;1.98;;;;;;;14.25;61.00;101865.97;5108051;28;20023;-76
2021/10/23 09:51:31;;;;;;;10.38;1.67;;;;;;;14.96;58.08;101859.41;5108211;28;20071;-76
2021/10/23 09:53:58;;;;;;;14.00;2.78;;;;;;;14.67;58.18;101836.47;5123522;27;20046;-76
2021/10/23 09:56:27;;;;;;;8.50;1.98;;;;;;;14.59;58.73;101847.22;5106447;28;20448;-76
2021/10/23 09:59:00;;;;;;;7.45;2.42;;;;;;;13.82;58.99;101812.19;5106141;28;20118;-75
2021/10/23 10:01:28;;;;;;;8.57;2.00;;;;;;;14.02;57.68;101802.06;5123385;27;20110;-75
2021/10/23 10:03:54;;;;;;;14.13;2.22;;;;;;;14.81;57.56;101855.69;5123163;27;20035;-75
2021/10/23 10:06:21;;;;;;;9.05;1.83;;;;;;;14.88;56.43;101821.75;5106011;28;20070;-75
2021/10/23 10:08:50;;;;;;;6.65;1.73;;;;;;;14.27;56.60;101792.28;5107158;28;20360;-74
2021/10/23 10:11:18;;;;;;;7.68;2.10;;;;;;;14.45;58.09;101834.38;5106711;28;20066;-74
2021/10/23 10:13:44;;;;;;;8.23;1.48;;;;;;;14.54;57.71;101826.19;5106640;28;20549;-75
2021/10/23 10:16:11;;;;;;;11.60;2.20;;;;;;;15.27;57.57;101853.44;5106916;28;20027;-76
2021/10/23 10:18:40;;;;;;;7.32;1.58;;;;;;;15.06;57.17;101825.16;5123866;27;20110;-76
2021/10/23 10:21:08;;;;;;;10.50;2.20;;;;;;;14.03;58.14;101811.81;5107630;28;20027;-75
2021/10/23 10:23:39;;;;;;;8.68;2.00;;;;;;;14.46;57.53;101828.81;5107431;28;20120;-76
2021/10/23 10:26:14;;;;;;;7.78;2.05;;;;;;;14.42;57.10;101837.34;5106779;28;20035;-76
2021/10/23 10:32:18;;;;;;;10.00;2.38;;;;;;;14.66;57.05;101856.31;5107696;28;20028;-76
2021/10/23 10:43:03;;;;;;;11.65;2.28;;;;;;;15.20;56.72;101854.09;5106642;28;20028;-75
2021/10/23 10:45:41;;;;;;;12.02;2.78;;;;;;;15.47;54.11;101821.66;5122675;28;20118;-76
2021/10/23 10:48:07;;;;;;;7.43;1.52;;;;;;;14.78;56.64;101836.19;5105610;28;20124;-76
2021/10/23 10:50:44;;;;;;;12.47;1.63;;;;;;;15.86;54.95;101880.22;5122747;27;20449;-76
2021/10/23 10:53:13;;;;;;;10.23;1.98;;;;;;;16.06;54.62;101875.28;5122773;28;20597;-76
2021/10/23 10:55:41;;;;;;;8.25;1.92;;;;;;;16.31;53.82;101876.91;5105995;28;20099;-76
2021/10/23 10:58:11;;;;;;;6.55;1.60;;;;;;;16.16;54.57;101881.34;5122591;28;20028;-76
2021/10/23 11:00:45;;;;;;;9.65;2.13;;;;;;;16.00;54.15;101863.38;5105733;28;20081;-75
2021/10/23 11:03:44;;;;;;;9.70;1.92;;;;;;;15.19;54.59;101827.34;5123149;28;20126;-75
2021/10/23 11:06:31;;;;;;;10.02;1.48;;;;;;;15.06;56.85;101849.34;5106879;28;20028;-76
2021/10/23 11:09:12;;;;;;;7.95;1.20;;;;;;;15.26;55.31;101846.34;5106265;28;20169;-76
2021/10/23 11:12:02;;;;;;;8.90;1.80;;;;;;;15.12;56.22;101870.19;5106288;28;20046;-76
2021/10/23 11:14:28;;;;;;;14.20;2.72;;;;;;;14.99;55.48;101832.22;5103879;28;20050;-75
2021/10/23 11:16:53;;;;;;;9.33;2.30;;;;;;;15.01;55.56;101840.09;5123242;27;20047;-76
2021/10/23 11:19:29;;;;;;;8.57;2.07;;;;;;;14.69;57.21;101864.03;5107035;28;20032;-76
2021/10/23 11:22:04;;;;;;;7.73;1.90;;;;;;;13.93;56.50;101809.25;5123218;28;20323;-76
2021/10/23 11:24:39;;;;;;;10.18;1.42;;;;;;;14.44;56.41;101854.16;5106745;28;20945;-76
2021/10/23 11:27:05;;;;;;;17.42;2.30;;;;;;;15.16;55.00;101881.47;5108398;28;20505;-76
2021/10/23 11:29:31;;;;;;;13.68;2.15;;;;;;;14.50;57.51;101880.41;5092815;28;20032;-76
2021/10/23 11:31:59;;;;;;;7.07;1.50;;;;;;;14.85;56.83;101911.66;5110941;28;20036;-76
2021/10/23 11:34:28;;;;;;;8.02;2.20;;;;;;;14.49;58.35;101894.81;5126809;27;20042;-76
2021/10/23 11:37:10;;;;;;;7.25;1.60;;;;;;;13.96;59.21;101871.69;5125659;27;20031;-76
2021/10/23 11:39:42;;;;;;;6.03;1.90;;;;;;;13.76;57.69;101862.97;5108635;28;20468;-76